Terminal Aerodrome Forecast
Issued by NWS

Home | Current Version | Previous Version | Text Only | Print | Product List | Glossary On
Versions: 1 2 3 4 5 6 7 8 9 10 11 12 13 14 15 16 17 18 19 20 21
000
FTUS46 KMFR 211426 AAA
TAFOTH
TAF AMD
KOTH 211426Z 2114/2212 03008KT P6SM FEW025
     FM211800 35010KT P6SM SCT025 BKN035
     FM211900 35017G27KT P6SM SKC
     FM220400 36013KT P6SM OVC026=

USA.gov is the U.S. government's official web portal to all federal, state and local government web resources and services.